Time;durP1;ratioP1;P1;durP2;ratioP2;P2;SDS_P1;SDS_P2;PMS_P1;PMS_P2;Temp;Humidity;BMP_temperature;BMP_pressure;BME280_temperature;BME280_humidity;BME280_pressure;Samples;Min_cycle;Max_cycle;Signal;HPM_P1;HPM_P2
2023/02/27 00:01:30;;;;;;;2.47;2.03;;;;;;;-2.03;65.20;96406.25;5010029;28;20283;-71
2023/02/27 00:03:55;;;;;;;4.00;2.10;;;;;;;-1.90;64.75;96407.19;5009841;28;20406;-70
2023/02/27 00:06:21;;;;;;;1.70;1.60;;;;;;;-1.79;63.73;96400.38;5009517;28;20423;-69
2023/02/27 00:08:46;;;;;;;2.10;1.70;;;;;;;-1.79;63.66;96401.25;5009870;28;20407;-71
2023/02/27 00:11:12;;;;;;;2.53;2.17;;;;;;;-1.78;63.91;96402.09;5009758;28;20242;-72
2023/02/27 00:13:37;;;;;;;2.60;2.30;;;;;;;-1.93;63.87;96414.03;5009998;28;20552;-70
2023/02/27 00:16:03;;;;;;;2.10;1.90;;;;;;;-2.16;65.50;96400.19;5009312;28;20696;-70
2023/02/27 00:18:29;;;;;;;3.10;1.93;;;;;;;-2.06;65.14;96407.09;5010127;28;20212;-70
2023/02/27 00:20:54;;;;;;;2.57;2.03;;;;;;;-2.19;66.03;96406.19;5009731;28;20450;-70
2023/02/27 00:23:20;;;;;;;2.43;2.23;;;;;;;-1.91;64.09;96406.34;5010060;28;20180;-70
2023/02/27 00:25:45;;;;;;;2.47;2.10;;;;;;;-1.93;64.37;96401.19;5009178;28;20214;-70
2023/02/27 00:28:11;;;;;;;2.73;2.53;;;;;;;-1.85;64.56;96401.19;5009108;28;20177;-71
2023/02/27 00:30:36;;;;;;;3.73;1.80;;;;;;;-1.94;63.95;96407.19;5009943;28;20196;-70
2023/02/27 00:33:02;;;;;;;4.97;2.77;;;;;;;-1.99;65.36;96405.41;5009873;28;20212;-70
2023/02/27 00:35:28;;;;;;;2.00;1.90;;;;;;;-2.10;65.00;96405.38;5009879;28;20169;-71
2023/02/27 00:37:53;;;;;;;2.57;2.20;;;;;;;-2.12;64.44;96409.66;5009058;28;20459;-71
2023/02/27 00:40:19;;;;;;;2.87;2.60;;;;;;;-2.15;64.62;96401.91;5008849;28;20545;-70
2023/02/27 00:42:45;;;;;;;2.30;2.13;;;;;;;-2.07;64.73;96399.41;5009171;28;20223;-72
2023/02/27 00:45:11;;;;;;;2.13;1.90;;;;;;;-2.10;64.27;96405.38;5009054;28;20282;-70
2023/02/27 00:47:36;;;;;;;2.30;2.03;;;;;;;-2.03;63.97;96403.69;5008776;28;20974;-71
2023/02/27 00:50:03;;;;;;;1.80;1.70;;;;;;;-2.39;64.30;96411.19;5008877;28;20408;-70
2023/02/27 00:52:28;;;;;;;2.50;2.30;;;;;;;-2.44;65.02;96414.56;5009012;28;20227;-69
2023/02/27 00:54:54;;;;;;;1.50;1.40;;;;;;;-2.26;65.13;96424.13;5008879;28;20458;-69
2023/02/27 00:57:20;;;;;;;3.33;2.00;;;;;;;-2.34;65.20;96421.50;5010092;28;20204;-70
2023/02/27 00:59:45;;;;;;;2.70;1.90;;;;;;;-2.50;66.02;96423.13;5008826;28;20173;-71
2023/02/27 01:02:11;;;;;;;2.73;2.30;;;;;;;-2.40;65.58;96426.59;5008883;28;20275;-72
2023/02/27 01:04:36;;;;;;;2.93;2.37;;;;;;;-2.42;64.87;96425.72;5008792;28;20207;-73
2023/02/27 01:07:02;;;;;;;2.27;2.13;;;;;;;-2.51;65.25;96423.94;5008789;28;20267;-71
2023/02/27 01:09:28;;;;;;;3.07;2.30;;;;;;;-2.67;65.84;96427.25;5009041;28;20172;-71
2023/02/27 01:11:53;;;;;;;2.13;1.93;;;;;;;-2.56;66.19;96421.34;5009094;28;20512;-71
2023/02/27 01:14:19;;;;;;;2.50;2.30;;;;;;;-2.54;66.59;96423.09;5007428;28;20242;-71
2023/02/27 01:16:44;;;;;;;3.07;2.17;;;;;;;-2.66;66.05;96422.13;5008491;28;20279;-71
2023/02/27 01:19:10;;;;;;;2.47;2.17;;;;;;;-2.56;66.21;96420.50;5009176;28;20204;-71
2023/02/27 01:21:35;;;;;;;2.33;2.10;;;;;;;-2.53;66.17;96414.50;5009079;28;20192;-69
2023/02/27 01:24:01;;;;;;;2.47;2.10;;;;;;;-2.69;66.65;96427.25;5008697;28;20176;-70
2023/02/27 01:26:27;;;;;;;7.07;1.97;;;;;;;-2.60;66.44;96421.31;5007092;28;20262;-71
2023/02/27 01:28:52;;;;;;;2.07;1.97;;;;;;;-2.71;67.13;96421.25;5006935;28;20419;-70
2023/02/27 01:31:18;;;;;;;2.23;2.03;;;;;;;-2.44;65.63;96418.00;5008135;28;20247;-71
2023/02/27 01:33:43;;;;;;;2.30;1.70;;;;;;;-2.58;67.13;96424.75;5008536;28;20176;-72
2023/02/27 01:36:09;;;;;;;3.40;2.50;;;;;;;-2.74;66.73;96417.78;5008184;28;20556;-71
2023/02/27 01:38:35;;;;;;;2.87;2.27;;;;;;;-2.52;65.85;96429.09;5006675;28;20216;-71
2023/02/27 01:41:00;;;;;;;3.17;2.37;;;;;;;-2.45;65.84;96425.72;5008055;28;20281;-71
2023/02/27 01:43:26;;;;;;;1.93;1.83;;;;;;;-2.40;66.22;96427.47;5008810;28;20630;-71
2023/02/27 01:45:52;;;;;;;1.87;1.77;;;;;;;-2.51;65.92;96417.97;5008845;28;20797;-70
2023/02/27 01:48:26;;;;;;;2.83;2.63;;;;;;;-2.58;66.46;96425.59;5009235;28;20184;-71
2023/02/27 01:50:58;;;;;;;2.97;2.53;;;;;;;-2.68;66.96;96426.38;5006935;28;20203;-70
2023/02/27 01:53:26;;;;;;;2.60;2.40;;;;;;;-2.66;68.25;96422.13;5008678;28;20403;-71
2023/02/27 01:55:59;;;;;;;2.60;2.23;;;;;;;-2.53;66.70;96425.63;5008123;28;20422;-70
2023/02/27 01:58:25;;;;;;;3.00;2.67;;;;;;;-2.70;67.80;96422.09;5008211;28;20467;-71
2023/02/27 02:00:51;;;;;;;3.53;2.57;;;;;;;-2.52;66.88;96416.25;5008259;28;20435;-72
2023/02/27 02:03:27;;;;;;;3.23;2.40;;;;;;;-2.67;67.21;96419.53;5007668;28;20502;-72
2023/02/27 02:05:55;;;;;;;2.60;1.90;;;;;;;-2.49;67.45;96427.38;5009877;28;20239;-71
2023/02/27 02:08:23;;;;;;;4.00;2.53;;;;;;;-2.59;67.43;96420.47;5012355;28;20438;-71
2023/02/27 02:10:51;;;;;;;5.63;3.47;;;;;;;-2.59;67.94;96425.63;5012049;28;20529;-71
2023/02/27 02:13:19;;;;;;;3.43;2.67;;;;;;;-2.74;68.72;96420.34;5012096;28;20497;-73
2023/02/27 02:15:53;;;;;;;2.80;2.47;;;;;;;-2.92;68.83;96421.91;5010317;28;20447;-70
2023/02/27 02:18:42;;;;;;;2.87;2.63;;;;;;;-2.64;67.88;96417.88;5007910;28;20840;-69
2023/02/27 02:21:52;;;;;;;3.33;2.57;;;;;;;-2.79;68.97;96415.16;4995797;28;20447;-70
2023/02/27 02:24:49;;;;;;;2.80;2.40;;;;;;;-2.77;69.54;96413.47;5005943;28;20415;-71
2023/02/27 02:27:20;;;;;;;2.67;2.47;;;;;;;-2.71;69.51;96425.53;5007435;28;20418;-69
2023/02/27 02:29:54;;;;;;;3.53;2.67;;;;;;;-2.77;68.49;96422.03;5007408;28;20411;-69
2023/02/27 02:32:38;;;;;;;2.80;2.57;;;;;;;-2.83;69.70;96421.16;5006989;28;20477;-71
2023/02/27 02:35:12;;;;;;;2.93;2.63;;;;;;;-2.79;69.18;96430.56;5006751;28;20427;-70
2023/02/27 02:37:55;;;;;;;3.97;2.47;;;;;;;-2.94;69.72;96415.91;5006991;28;20532;-70
2023/02/27 02:40:20;;;;;;;3.47;2.57;;;;;;;-2.99;70.84;96420.13;5006898;28;20426;-70
2023/02/27 02:43:18;;;;;;;2.47;2.27;;;;;;;-2.81;69.95;96424.56;5007200;28;20423;-70
2023/02/27 02:46:12;;;;;;;2.93;2.57;;;;;;;-2.94;70.68;96421.03;4998886;28;20254;-71
2023/02/27 02:48:51;;;;;;;3.17;2.23;;;;;;;-2.79;69.12;96418.63;5006860;28;20431;-71
2023/02/27 02:51:28;;;;;;;2.63;2.43;;;;;;;-2.87;69.24;96403.97;5004970;28;20446;-71
2023/02/27 02:54:05;;;;;;;2.50;2.10;;;;;;;-2.87;70.73;96415.09;5006627;28;20478;-70
2023/02/27 02:56:33;;;;;;;3.23;2.93;;;;;;;-2.84;70.09;96421.97;5006373;28;20419;-71
2023/02/27 02:59:09;;;;;;;4.23;2.40;;;;;;;-2.83;69.21;96411.72;5006983;28;20458;-69
2023/02/27 03:01:47;;;;;;;3.10;2.50;;;;;;;-2.88;69.57;96412.50;5006882;28;20488;-71
2023/02/27 03:04:27;;;;;;;2.50;2.30;;;;;;;-2.86;70.56;96421.09;5007222;28;20415;-70
2023/02/27 03:07:01;;;;;;;5.80;2.73;;;;;;;-2.93;70.45;96420.19;5006561;28;20465;-69
2023/02/27 03:09:43;;;;;;;4.03;2.70;;;;;;;-2.78;69.37;96422.91;5006729;28;20443;-70
2023/02/27 03:12:13;;;;;;;2.60;2.40;;;;;;;-2.81;70.21;96415.16;5006788;28;20435;-70
2023/02/27 03:14:56;;;;;;;3.57;3.17;;;;;;;-2.97;70.25;96413.31;5006838;28;20431;-70
2023/02/27 03:17:49;;;;;;;3.93;3.10;;;;;;;-2.82;70.60;96413.44;5006161;28;20458;-72
2023/02/27 03:20:30;;;;;;;3.10;2.80;;;;;;;-2.75;70.25;96413.50;5006561;28;20911;-71
2023/02/27 03:23:00;;;;;;;3.77;3.30;;;;;;;-2.60;69.30;96414.50;5006346;28;20403;-71
2023/02/27 03:25:27;;;;;;;3.00;2.70;;;;;;;-2.75;69.55;96410.94;5006533;28;20486;-70
2023/02/27 03:27:58;;;;;;;3.43;2.70;;;;;;;-2.81;70.53;96416.84;5006203;28;20465;-70
2023/02/27 03:31:04;;;;;;;4.43;3.27;;;;;;;-2.74;70.54;96415.19;5006060;28;20396;-71
2023/02/27 03:33:50;;;;;;;7.53;3.27;;;;;;;-2.68;70.19;96413.53;5006041;28;20517;-71
2023/02/27 03:36:54;;;;;;;3.13;2.23;;;;;;;-2.96;70.67;96421.88;5006077;28;20906;-71
2023/02/27 03:39:37;;;;;;;3.93;3.57;;;;;;;-2.85;70.43;96421.13;4994936;28;20438;-71
2023/02/27 03:42:21;;;;;;;3.30;3.00;;;;;;;-2.92;70.10;96421.06;5006233;28;20435;-72
2023/02/27 03:45:49;;;;;;;4.43;2.97;;;;;;;-2.94;71.46;96412.47;5006111;28;20420;-71
2023/02/27 03:48:14;;;;;;;2.83;2.57;;;;;;;-2.93;69.94;96417.59;4983595;28;21120;-70
2023/02/27 03:50:40;;;;;;;3.20;2.90;;;;;;;-2.95;70.35;96419.31;4983490;28;20436;-71
2023/02/27 03:53:12;;;;;;;3.70;3.23;;;;;;;-3.02;70.70;96420.13;4983683;28;20219;-70
2023/02/27 03:55:41;;;;;;;3.40;3.03;;;;;;;-2.81;70.61;96411.72;4983914;28;20185;-70
2023/02/27 03:58:07;;;;;;;4.80;3.33;;;;;;;-2.94;70.95;96418.47;4983729;28;20561;-73
2023/02/27 04:00:33;;;;;;;3.93;2.90;;;;;;;-2.88;70.74;96413.41;4984331;28;21050;-69
2023/02/27 04:03:00;;;;;;;4.87;3.23;;;;;;;-3.02;71.04;96422.69;4987839;28;20177;-71
2023/02/27 04:05:27;;;;;;;4.97;3.77;;;;;;;-2.92;70.67;96421.91;4987412;28;20420;-71
2023/02/27 04:08:14;;;;;;;3.00;2.70;;;;;;;-2.91;70.65;96415.91;4987279;28;20467;-71
2023/02/27 04:10:55;;;;;;;4.03;3.27;;;;;;;-2.96;71.57;96417.59;4987476;28;20455;-71
2023/02/27 04:13:51;;;;;;;4.70;3.73;;;;;;;-2.83;69.74;96423.72;4987335;28;20466;-71
2023/02/27 04:16:44;;;;;;;3.60;3.20;;;;;;;-2.72;71.19;96432.34;4988729;28;20797;-73
2023/02/27 04:19:26;;;;;;;5.30;3.23;;;;;;;-2.94;71.13;96431.31;5000549;28;20463;-71
2023/02/27 04:22:16;;;;;;;4.03;3.70;;;;;;;-2.90;71.45;96435.63;5010029;28;20465;-70
2023/02/27 04:24:55;;;;;;;3.20;2.90;;;;;;;-2.85;70.76;96448.50;5009952;28;20494;-72
2023/02/27 04:27:46;;;;;;;5.03;3.10;;;;;;;-2.91;71.39;96441.59;5009608;28;20873;-71
2023/02/27 04:30:50;;;;;;;4.17;2.70;;;;;;;-2.88;71.69;96440.75;5009499;28;20757;-70
2023/02/27 04:33:31;;;;;;;4.43;3.60;;;;;;;-2.99;71.92;96441.53;5009348;28;20430;-70
2023/02/27 04:36:04;;;;;;;3.57;3.03;;;;;;;-3.09;72.96;96444.88;5009391;28;20465;-72
2023/02/27 04:38:40;;;;;;;10.03;3.00;;;;;;;-3.11;71.67;96440.56;5009500;28;20470;-74
2023/02/27 04:41:29;;;;;;;4.47;3.07;;;;;;;-2.85;71.94;96441.66;5009008;28;20493;-73
2023/02/27 04:43:56;;;;;;;3.70;3.40;;;;;;;-2.78;70.65;96443.44;5009665;28;20418;-71
2023/02/27 04:46:26;;;;;;;3.10;2.80;;;;;;;-2.96;71.48;96448.41;5009021;28;20931;-70
2023/02/27 04:49:10;;;;;;;4.67;3.63;;;;;;;-2.84;71.77;96448.50;5009743;28;20466;-71
2023/02/27 04:51:45;;;;;;;5.07;4.10;;;;;;;-2.78;71.11;96446.00;4990056;28;20431;-72
2023/02/27 04:54:16;;;;;;;3.43;2.87;;;;;;;-2.71;70.19;96448.63;4990223;28;20474;-69
2023/02/27 04:56:50;;;;;;;5.83;3.73;;;;;;;-2.75;71.04;96434.03;4990077;28;20559;-71
2023/02/27 04:59:23;;;;;;;6.93;3.80;;;;;;;-2.91;70.27;96438.16;4991129;28;21005;-72
2023/02/27 05:02:22;;;;;;;5.57;2.97;;;;;;;-3.02;71.83;96450.94;4991090;28;20440;-71
2023/02/27 05:04:50;;;;;;;4.17;3.77;;;;;;;-3.08;70.44;96438.88;4994448;28;20431;-72
2023/02/27 05:07:19;;;;;;;3.80;3.03;;;;;;;-3.02;70.53;96448.34;4997415;28;20436;-71
2023/02/27 05:10:02;;;;;;;3.73;3.13;;;;;;;-3.21;70.86;96450.72;4993393;28;20474;-71
2023/02/27 05:12:43;;;;;;;4.23;3.73;;;;;;;-3.04;70.33;96452.63;4989980;28;21277;-70
2023/02/27 05:15:34;;;;;;;4.77;3.83;;;;;;;-3.06;70.04;96451.72;4992966;28;20420;-71
2023/02/27 05:18:03;;;;;;;4.17;3.60;;;;;;;-3.03;70.46;96459.47;4993737;28;20475;-70
2023/02/27 05:20:50;;;;;;;7.47;3.60;;;;;;;-3.23;71.21;96455.00;4989311;28;20479;-72
2023/02/27 05:23:31;;;;;;;4.20;3.30;;;;;;;-3.00;70.32;96452.66;5003412;28;20483;-71
2023/02/27 05:26:13;;;;;;;8.27;4.40;;;;;;;-3.23;71.52;96465.25;5007333;28;20411;-70
2023/02/27 05:29:00;;;;;;;7.30;3.97;;;;;;;-3.22;70.98;96464.41;5008310;28;20420;-71
2023/02/27 05:31:34;;;;;;;4.20;3.27;;;;;;;-3.03;70.11;96454.31;5008064;28;20493;-71
2023/02/27 05:34:07;;;;;;;3.53;3.10;;;;;;;-3.16;71.42;96458.47;5008247;28;20418;-71
2023/02/27 05:36:38;;;;;;;3.40;3.10;;;;;;;-2.97;69.12;96463.81;5008077;28;20900;-71
2023/02/27 05:39:07;;;;;;;4.50;3.60;;;;;;;-3.04;69.61;96463.75;5007756;28;20458;-72
2023/02/27 05:41:42;;;;;;;4.10;3.40;;;;;;;-3.09;69.31;96459.41;5008046;28;20979;-70
2023/02/27 05:44:22;;;;;;;5.57;4.20;;;;;;;-3.26;70.10;96461.78;5004379;28;20422;-70
2023/02/27 05:47:11;;;;;;;4.33;3.50;;;;;;;-3.23;71.27;96456.69;5003817;28;20419;-74
2023/02/27 05:49:48;;;;;;;4.90;3.23;;;;;;;-3.32;71.61;96459.16;5007972;28;20431;-70
2023/02/27 05:52:17;;;;;;;3.43;3.10;;;;;;;-3.53;71.12;96464.91;5008198;28;20434;-72
2023/02/27 05:55:04;;;;;;;5.03;3.70;;;;;;;-3.37;71.10;96463.38;5007897;28;20451;-71
2023/02/27 05:57:52;;;;;;;4.17;3.80;;;;;;;-3.27;70.90;96478.03;5007551;28;20473;-71
2023/02/27 06:00:37;;;;;;;4.53;3.97;;;;;;;-2.97;72.25;96479.22;5007535;28;20423;-71
2023/02/27 06:03:03;;;;;;;3.63;3.33;;;;;;;-2.97;69.86;96462.09;5007353;28;20525;-70
2023/02/27 06:05:29;;;;;;;3.93;3.53;;;;;;;-3.18;70.80;96464.44;5007676;28;20996;-71
2023/02/27 06:07:54;;;;;;;4.67;3.90;;;;;;;-2.91;69.15;96474.13;5007559;28;20415;-69
2023/02/27 06:10:20;;;;;;;6.07;3.47;;;;;;;-3.25;70.81;96474.63;5007558;28;20452;-70
2023/02/27 06:12:46;;;;;;;3.63;3.33;;;;;;;-3.17;69.99;96468.72;5007598;28;20638;-70
2023/02/27 06:15:12;;;;;;;4.47;3.47;;;;;;;-3.15;70.54;96461.91;5007712;28;20425;-70
2023/02/27 06:17:38;;;;;;;4.40;3.50;;;;;;;-3.35;70.12;96465.13;5007238;28;20208;-69
2023/02/27 06:20:06;;;;;;;5.87;3.47;;;;;;;-3.23;71.41;96470.38;5007515;28;20411;-71
2023/02/27 06:22:32;;;;;;;4.33;3.63;;;;;;;-3.18;71.25;96478.13;5007073;28;20497;-71
2023/02/27 06:24:58;;;;;;;3.93;3.63;;;;;;;-3.26;70.56;96466.91;5006487;28;20430;-70
2023/02/27 06:27:25;;;;;;;5.73;4.43;;;;;;;-2.98;69.77;96473.19;5006949;28;20408;-69
2023/02/27 06:29:52;;;;;;;5.80;4.00;;;;;;;-2.90;70.07;96478.44;5006952;28;20210;-70
2023/02/27 06:32:18;;;;;;;4.50;3.90;;;;;;;-3.06;69.82;96474.84;5005048;28;21029;-68
2023/02/27 06:34:43;;;;;;;4.53;3.70;;;;;;;-2.97;70.03;96480.06;5006998;28;20423;-70
2023/02/27 06:37:09;;;;;;;6.83;3.93;;;;;;;-2.96;69.13;96483.50;5006749;28;20196;-70
2023/02/27 06:39:34;;;;;;;4.87;3.97;;;;;;;-2.82;70.03;96482.78;5006692;28;20172;-70
2023/02/27 06:42:00;;;;;;;5.27;3.80;;;;;;;-2.74;68.61;96480.28;5007158;28;20287;-69
2023/02/27 06:44:25;;;;;;;5.93;4.20;;;;;;;-2.60;67.97;96483.84;5006424;28;20176;-71
2023/02/27 06:46:51;;;;;;;4.17;3.77;;;;;;;-2.41;68.62;96481.41;5006568;28;20293;-71
2023/02/27 06:49:17;;;;;;;5.20;4.07;;;;;;;-2.31;67.43;96479.78;5006658;28;20176;-70
2023/02/27 06:51:43;;;;;;;7.67;3.77;;;;;;;-2.18;66.45;96489.28;5006538;28;20204;-70
2023/02/27 06:54:09;;;;;;;5.10;4.60;;;;;;;-2.19;66.68;96488.44;5005083;28;20949;-69
2023/02/27 06:56:34;;;;;;;10.33;3.77;;;;;;;-2.22;66.59;96487.53;5006380;28;20176;-70
2023/02/27 06:58:59;;;;;;;3.77;3.47;;;;;;;-2.31;67.47;96488.34;5006693;28;20938;-70
2023/02/27 07:01:25;;;;;;;4.53;3.93;;;;;;;-2.46;66.57;96494.22;5004340;28;20223;-68
2023/02/27 07:03:51;;;;;;;4.50;4.10;;;;;;;-2.35;66.26;96490.03;5004595;28;20180;-70
2023/02/27 07:06:16;;;;;;;4.73;4.33;;;;;;;-2.29;67.39;96493.50;5005607;28;20176;-70
2023/02/27 07:08:42;;;;;;;4.63;3.43;;;;;;;-2.03;65.58;96493.69;5002894;28;20165;-70
2023/02/27 07:11:07;;;;;;;5.47;3.93;;;;;;;-2.21;66.20;96497.00;5006132;28;20199;-70
2023/02/27 07:13:33;;;;;;;4.10;3.77;;;;;;;-2.05;65.37;96500.53;5003909;28;20192;-68
2023/02/27 07:15:58;;;;;;;5.63;5.23;;;;;;;-1.10;62.65;96491.56;5002316;28;20719;-68
2023/02/27 07:18:24;;;;;;;5.23;3.23;;;;;;;-0.86;61.26;96500.22;5003937;28;22089;-70
2023/02/27 07:20:50;;;;;;;5.10;3.70;;;;;;;-0.62;60.16;96494.25;5002083;28;20250;-70
2023/02/27 07:23:37;;;;;;;4.37;3.30;;;;;;;-1.07;61.98;96493.28;5002406;28;20610;-70
2023/02/27 07:26:02;;;;;;;6.70;3.90;;;;;;;0.42;57.12;96499.31;5000214;28;20459;-70
2023/02/27 07:28:28;;;;;;;5.13;3.23;;;;;;;0.09;57.55;96507.16;4978431;28;20483;-70
2023/02/27 07:30:54;;;;;;;3.20;2.90;;;;;;;-0.32;57.91;96506.31;4999918;28;20298;-71
2023/02/27 07:33:21;;;;;;;4.87;3.77;;;;;;;-0.09;58.57;96505.47;4996185;28;20188;-70
2023/02/27 07:35:46;;;;;;;4.40;3.60;;;;;;;-0.28;59.05;96510.63;5001606;28;20497;-69
2023/02/27 07:38:12;;;;;;;4.60;3.40;;;;;;;0.02;58.08;96519.19;5001759;28;20459;-71
2023/02/27 07:40:37;;;;;;;3.60;3.40;;;;;;;0.20;57.15;96519.16;5004143;28;20554;-70
2023/02/27 07:43:03;;;;;;;4.00;3.47;;;;;;;0.46;56.26;96515.69;5003956;28;20204;-70
2023/02/27 07:45:28;;;;;;;3.63;3.07;;;;;;;0.18;56.80;96520.88;5003938;28;20242;-71
2023/02/27 07:47:54;;;;;;;3.60;3.30;;;;;;;0.31;56.80;96518.31;5003006;28;20183;-71
2023/02/27 07:50:20;;;;;;;4.17;3.77;;;;;;;-0.43;58.37;96529.53;5004598;28;20607;-72
2023/02/27 07:52:45;;;;;;;6.13;3.97;;;;;;;-0.49;58.63;96531.22;5003371;28;20255;-69
2023/02/27 07:55:12;;;;;;;4.70;4.13;;;;;;;-0.69;59.70;96531.16;5005495;28;20184;-71
2023/02/27 07:57:38;;;;;;;3.73;3.30;;;;;;;-0.13;58.33;96535.53;5004233;28;20302;-71
2023/02/27 08:00:08;;;;;;;6.37;4.30;;;;;;;-0.03;57.57;96528.66;5004138;28;20955;-72
2023/02/27 08:02:34;;;;;;;3.73;3.37;;;;;;;0.13;57.47;96535.53;5003581;28;20609;-70
2023/02/27 08:04:59;;;;;;;7.20;4.10;;;;;;;0.46;56.18;96531.19;5006419;28;20521;-71
2023/02/27 08:07:25;;;;;;;4.70;4.27;;;;;;;0.40;56.37;96526.00;5006670;28;20275;-70
2023/02/27 08:09:50;;;;;;;5.57;4.33;;;;;;;0.91;55.09;96528.47;5006857;28;20318;-70
2023/02/27 08:12:15;;;;;;;7.67;4.30;;;;;;;1.17;54.10;96523.16;5005850;28;20222;-70
2023/02/27 08:14:41;;;;;;;5.10;4.10;;;;;;;0.96;53.75;96530.16;5004844;28;20229;-72
2023/02/27 08:17:07;;;;;;;6.90;3.70;;;;;;;1.57;52.41;96530.69;5006284;28;20180;-71
2023/02/27 08:19:32;;;;;;;9.93;4.07;;;;;;;0.88;55.23;96526.75;5006045;28;20218;-71
2023/02/27 08:21:57;;;;;;;3.27;2.97;;;;;;;0.86;53.70;96523.31;5007239;28;20200;-71
2023/02/27 08:24:23;;;;;;;4.10;3.70;;;;;;;0.81;54.54;96532.81;5006680;28;20191;-70
2023/02/27 08:26:49;;;;;;;3.80;3.47;;;;;;;0.67;55.66;96530.25;5006615;28;20184;-72
2023/02/27 08:29:14;;;;;;;4.50;3.87;;;;;;;0.66;55.79;96546.59;5006726;28;20234;-71
2023/02/27 08:31:39;;;;;;;7.50;3.53;;;;;;;0.03;57.74;96541.56;5007792;28;20768;-70
2023/02/27 08:34:05;;;;;;;4.10;3.70;;;;;;;0.34;56.50;96534.63;5007750;28;20314;-71
2023/02/27 08:36:31;;;;;;;7.40;3.70;;;;;;;0.30;56.39;96532.06;5005053;28;20570;-70
2023/02/27 08:38:57;;;;;;;4.23;3.70;;;;;;;0.92;55.55;96540.50;5006030;28;20228;-72
2023/02/27 08:41:22;;;;;;;4.33;3.70;;;;;;;0.79;55.47;96545.72;5006301;28;20454;-71
2023/02/27 08:43:48;;;;;;;5.70;3.83;;;;;;;1.14;55.17;96538.69;5005455;28;21053;-70
2023/02/27 08:46:13;;;;;;;5.57;4.00;;;;;;;0.65;54.95;96542.31;5005032;28;20224;-68
2023/02/27 08:48:41;;;;;;;9.70;4.10;;;;;;;0.98;55.61;96543.91;5005512;28;20177;-71
2023/02/27 08:51:07;;;;;;;7.43;5.07;;;;;;;1.67;53.02;96538.38;5004504;28;20732;-72
2023/02/27 08:53:32;;;;;;;5.50;4.20;;;;;;;1.42;53.50;96552.34;5005114;28;20526;-71
2023/02/27 08:55:58;;;;;;;5.97;4.20;;;;;;;1.27;52.95;96556.69;5005515;28;20928;-71
2023/02/27 08:58:23;;;;;;;6.97;5.83;;;;;;;1.36;52.44;96542.88;5008113;28;20200;-71
2023/02/27 09:00:49;;;;;;;18.53;10.53;;;;;;;1.78;51.99;96538.31;5008340;28;20203;-71
2023/02/27 09:03:14;;;;;;;5.40;3.77;;;;;;;1.17;52.68;96561.94;5008706;28;20238;-71
2023/02/27 09:05:41;;;;;;;9.53;5.70;;;;;;;0.89;52.78;96548.28;5008375;28;20183;-69
2023/02/27 09:08:07;;;;;;;10.47;7.10;;;;;;;1.10;53.72;96540.44;5008908;28;20251;-71
2023/02/27 09:10:33;;;;;;;14.20;8.00;;;;;;;1.39;51.37;96549.75;5009318;28;20518;-71
2023/02/27 09:12:59;;;;;;;5.00;3.80;;;;;;;1.54;51.31;96557.44;5009309;28;20218;-69
2023/02/27 09:15:25;;;;;;;3.90;3.33;;;;;;;1.65;49.89;96558.25;5007744;28;20498;-69
2023/02/27 09:17:51;;;;;;;8.67;4.80;;;;;;;1.92;49.68;96552.88;5007483;28;20562;-70
2023/02/27 09:20:16;;;;;;;11.00;4.30;;;;;;;1.81;49.71;96542.59;5008871;28;20266;-70
2023/02/27 09:22:42;;;;;;;5.93;3.80;;;;;;;2.60;47.72;96545.34;5008377;28;20427;-69
2023/02/27 09:25:08;;;;;;;4.50;4.10;;;;;;;2.50;47.38;96542.00;5008638;28;20174;-68
2023/02/27 09:27:34;;;;;;;3.53;3.23;;;;;;;1.76;48.23;96537.44;5007771;28;20744;-72
2023/02/27 09:30:00;;;;;;;3.47;3.10;;;;;;;1.17;49.42;96564.53;4991857;28;20173;-70
2023/02/27 09:32:26;;;;;;;4.33;3.20;;;;;;;1.19;49.39;96545.56;5008334;28;20494;-71
2023/02/27 09:34:52;;;;;;;4.43;3.50;;;;;;;1.23;49.59;96567.94;5007884;28;20972;-70
2023/02/27 09:37:20;;;;;;;6.33;3.50;;;;;;;1.50;49.87;96578.16;5007684;28;20188;-70
2023/02/27 09:39:46;;;;;;;4.27;3.27;;;;;;;1.29;50.40;96559.28;5007841;28;20186;-71
2023/02/27 09:42:22;;;;;;;6.57;4.70;;;;;;;1.04;50.47;96554.25;5007795;28;20427;-71
2023/02/27 09:45:12;;;;;;;4.77;3.23;;;;;;;1.12;50.05;96561.09;5007455;28;20190;-69
2023/02/27 09:47:49;;;;;;;8.33;4.13;;;;;;;1.29;49.79;96569.63;5007402;28;20411;-70
2023/02/27 09:50:17;;;;;;;7.10;3.27;;;;;;;1.28;49.28;96567.94;5007493;28;20421;-70
2023/02/27 09:52:43;;;;;;;5.30;3.10;;;;;;;1.08;50.21;96559.38;5007712;28;20489;-70
2023/02/27 09:55:18;;;;;;;3.43;3.10;;;;;;;1.31;50.28;96577.38;5007780;28;21084;-71
2023/02/27 09:58:00;;;;;;;5.63;3.33;;;;;;;0.99;50.77;96568.91;5007329;28;20561;-69
2023/02/27 10:00:44;;;;;;;3.53;3.23;;;;;;;1.18;50.61;96584.31;5007497;28;20415;-71
2023/02/27 10:03:34;;;;;;;3.77;3.37;;;;;;;0.96;51.02;96587.00;5008308;28;20414;-71
2023/02/27 10:06:35;;;;;;;3.17;2.87;;;;;;;1.29;50.08;96586.88;5007279;28;20417;-70
2023/02/27 10:09:00;;;;;;;3.17;2.87;;;;;;;1.08;51.09;96580.06;5007647;28;20387;-70
2023/02/27 10:11:50;;;;;;;4.53;3.67;;;;;;;1.38;50.18;96592.84;5007492;28;20435;-70
2023/02/27 10:14:45;;;;;;;11.30;5.63;;;;;;;1.13;49.89;96593.81;5007839;28;20247;-71
2023/02/27 10:17:21;;;;;;;5.80;3.87;;;;;;;0.83;51.25;96593.06;5008344;28;20454;-72
2023/02/27 10:19:49;;;;;;;5.70;3.80;;;;;;;0.28;51.48;96606.06;5007328;28;20402;-71
2023/02/27 10:22:22;;;;;;;4.97;3.30;;;;;;;0.13;52.24;96600.03;5007022;28;20481;-71
2023/02/27 10:25:13;;;;;;;3.90;3.17;;;;;;;0.09;52.66;96606.03;5007078;28;20410;-71
2023/02/27 10:27:43;;;;;;;3.83;3.53;;;;;;;-0.05;52.50;96603.47;5003380;28;20423;-70
2023/02/27 10:30:19;;;;;;;6.03;3.60;;;;;;;-0.09;53.10;96596.59;5006985;28;20413;-70
2023/02/27 10:32:48;;;;;;;4.40;3.40;;;;;;;0.15;51.68;96600.03;5004462;28;20423;-70
2023/02/27 10:35:21;;;;;;;3.70;3.13;;;;;;;0.04;51.99;96623.25;5006917;28;20510;-70
2023/02/27 10:37:51;;;;;;;5.80;4.00;;;;;;;0.17;51.99;96604.34;5005411;28;20917;-71
2023/02/27 10:40:19;;;;;;;8.43;5.00;;;;;;;0.40;51.56;96606.03;5006466;28;20517;-72
2023/02/27 10:42:46;;;;;;;8.40;4.10;;;;;;;0.59;51.54;96612.03;5009128;28;20454;-70
2023/02/27 10:45:16;;;;;;;6.00;4.53;;;;;;;0.79;51.22;96615.47;5005794;28;20451;-72
2023/02/27 10:47:42;;;;;;;6.13;3.53;;;;;;;0.57;51.31;96616.38;5006604;28;20407;-71
2023/02/27 10:50:31;;;;;;;8.93;4.37;;;;;;;0.86;51.55;96625.78;5008833;28;20416;-71
2023/02/27 10:53:00;;;;;;;7.63;4.37;;;;;;;0.75;51.39;96625.78;5001869;28;21184;-72
2023/02/27 10:55:31;;;;;;;5.50;3.43;;;;;;;0.23;52.14;96618.09;5007252;28;20411;-72
2023/02/27 10:57:58;;;;;;;7.23;3.40;;;;;;;0.17;51.74;96624.13;5006907;28;21333;-72
2023/02/27 11:00:34;;;;;;;4.90;2.83;;;;;;;-0.01;52.63;96614.66;5006533;28;20424;-72
2023/02/27 11:03:00;;;;;;;6.60;4.10;;;;;;;0.26;51.29;96615.50;5006830;28;20412;-70
2023/02/27 11:05:31;;;;;;;5.00;3.27;;;;;;;0.12;51.91;96618.97;5007133;28;20430;-70
2023/02/27 11:08:10;;;;;;;3.63;3.33;;;;;;;0.16;52.13;96624.97;5005405;28;20419;-72
2023/02/27 11:10:36;;;;;;;4.03;3.50;;;;;;;0.09;52.23;96624.09;5002641;28;20434;-70
2023/02/27 11:13:17;;;;;;;5.13;4.30;;;;;;;0.25;52.31;96640.47;5001827;28;20419;-71
2023/02/27 11:15:42;;;;;;;7.77;4.20;;;;;;;0.20;52.35;96622.41;4987062;28;20195;-70
2023/02/27 11:18:27;;;;;;;3.90;3.53;;;;;;;0.09;51.78;96612.94;4998592;28;20470;-72
2023/02/27 11:20:53;;;;;;;4.60;4.10;;;;;;;-0.07;53.17;96615.53;4998815;28;20290;-71
2023/02/27 11:23:22;;;;;;;4.50;3.90;;;;;;;0.12;52.80;96616.38;5002046;28;21229;-72
2023/02/27 11:25:48;;;;;;;4.07;3.70;;;;;;;-0.09;53.33;96618.97;5000112;28;20455;-69
2023/02/27 11:28:29;;;;;;;10.07;4.20;;;;;;;0.07;53.32;96624.97;4998187;28;20456;-71
2023/02/27 11:31:13;;;;;;;4.10;3.67;;;;;;;0.28;53.40;96611.22;4998710;28;20234;-70
2023/02/27 11:33:48;;;;;;;5.50;3.20;;;;;;;0.42;50.09;96612.91;5002983;28;20435;-71
2023/02/27 11:36:14;;;;;;;4.80;2.60;;;;;;;0.46;48.43;96608.63;5001488;28;20518;-70
2023/02/27 11:38:39;;;;;;;7.67;3.30;;;;;;;0.51;49.14;96613.78;5003257;28;20657;-71
2023/02/27 11:41:07;;;;;;;4.50;4.10;;;;;;;0.52;47.88;96598.31;5000428;28;20195;-71
2023/02/27 11:43:47;;;;;;;4.20;3.47;;;;;;;0.78;49.08;96602.53;5002599;28;20184;-71
2023/02/27 11:46:19;;;;;;;4.50;3.50;;;;;;;1.00;49.38;96606.78;4999940;28;21180;-72
2023/02/27 11:49:30;;;;;;;4.73;3.87;;;;;;;0.70;49.08;96601.72;5000627;28;20506;-71
2023/02/27 11:52:19;;;;;;;9.80;3.93;;;;;;;0.62;48.68;96607.75;4998446;28;20458;-72
2023/02/27 11:54:54;;;;;;;8.63;3.83;;;;;;;0.77;48.05;96609.44;5001257;28;20441;-72
2023/02/27 11:57:33;;;;;;;4.63;4.07;;;;;;;0.47;48.46;96605.16;5002436;28;21038;-71
2023/02/27 12:00:18;;;;;;;4.43;3.57;;;;;;;0.44;48.30;96605.19;5002093;28;20430;-71